<?xml version="1.0" encoding="UTF-8" standalone="no" ?>
<gpx xmlns="http://www.topografix.com/GPX/1/1" xmlns:xsi="http://www.w3.org/2001/XMLSchema-instance" xsi:schemaLocation="http://www.topografix.com/GPX/1/1 http://www.topografix.com/GPX/1/1/gpx.xsd" version="1.1" creator="VisuGPX - https://www.visugpx.com">
  <metadata>
    <name>chauve 12/11</name>
    <desc><![CDATA[Training vtt avec descente de nuit]]></desc>
  </metadata>
  <trk>
    <name><![CDATA[(null)]]></name>
    <desc><![CDATA[(null)]]></desc>
    <trkseg>
      <trkpt lat="43.72969" lon="7.27765">
        <ele>172</ele>
        <time>2010-11-12T15:36:06Z</time>
      </trkpt>
      <trkpt lat="43.72969" lon="7.27765">
        <ele>172</ele>
        <time>2010-11-12T15:36:06Z</time>
      </trkpt>
      <trkpt lat="43.72969" lon="7.27765">
        <ele>173</ele>
        <time>2010-11-12T15:36:07Z</time>
      </trkpt>
      <trkpt lat="43.72969" lon="7.2777">
        <ele>194</ele>
        <time>2010-11-12T15:36:32Z</time>
      </trkpt>
      <trkpt lat="43.72975" lon="7.27646">
        <ele>215</ele>
        <time>2010-11-12T15:37:18Z</time>
      </trkpt>
      <trkpt lat="43.72985" lon="7.2764">
        <ele>216</ele>
        <time>2010-11-12T15:37:22Z</time>
      </trkpt>
      <trkpt lat="43.7307" lon="7.27593">
        <ele>216</ele>
        <time>2010-11-12T15:37:48Z</time>
      </trkpt>
      <trkpt lat="43.7316" lon="7.27575">
        <ele>217</ele>
        <time>2010-11-12T15:38:09Z</time>
      </trkpt>
      <trkpt lat="43.73248" lon="7.27607">
        <ele>226</ele>
        <time>2010-11-12T15:38:33Z</time>
      </trkpt>
      <trkpt lat="43.73315" lon="7.27692">
        <ele>229</ele>
        <time>2010-11-12T15:38:52Z</time>
      </trkpt>
      <trkpt lat="43.73364" lon="7.27798">
        <ele>230</ele>
        <time>2010-11-12T15:39:22Z</time>
      </trkpt>
      <trkpt lat="43.73447" lon="7.2785">
        <ele>233</ele>
        <time>2010-11-12T15:39:56Z</time>
      </trkpt>
      <trkpt lat="43.73532" lon="7.27896">
        <ele>238</ele>
        <time>2010-11-12T15:40:30Z</time>
      </trkpt>
      <trkpt lat="43.73614" lon="7.2795">
        <ele>247</ele>
        <time>2010-11-12T15:41:06Z</time>
      </trkpt>
      <trkpt lat="43.73699" lon="7.27902">
        <ele>264</ele>
        <time>2010-11-12T15:41:46Z</time>
      </trkpt>
      <trkpt lat="43.73783" lon="7.27851">
        <ele>268</ele>
        <time>2010-11-12T15:42:20Z</time>
      </trkpt>
      <trkpt lat="43.73869" lon="7.27811">
        <ele>271</ele>
        <time>2010-11-12T15:42:55Z</time>
      </trkpt>
      <trkpt lat="43.73897" lon="7.27799">
        <ele>274</ele>
        <time>2010-11-12T15:43:07Z</time>
      </trkpt>
      <trkpt lat="43.73855" lon="7.27687">
        <ele>280</ele>
        <time>2010-11-12T15:44:38Z</time>
      </trkpt>
      <trkpt lat="43.73834" lon="7.2766">
        <ele>281</ele>
        <time>2010-11-12T15:44:50Z</time>
      </trkpt>
      <trkpt lat="43.7389" lon="7.27561">
        <ele>295</ele>
        <time>2010-11-12T15:45:38Z</time>
      </trkpt>
      <trkpt lat="43.73872" lon="7.27509">
        <ele>298</ele>
        <time>2010-11-12T15:45:55Z</time>
      </trkpt>
      <trkpt lat="43.73819" lon="7.27406">
        <ele>304</ele>
        <time>2010-11-12T15:46:37Z</time>
      </trkpt>
      <trkpt lat="43.73878" lon="7.27309">
        <ele>312</ele>
        <time>2010-11-12T15:47:16Z</time>
      </trkpt>
      <trkpt lat="43.73873" lon="7.27433">
        <ele>318</ele>
        <time>2010-11-12T15:47:59Z</time>
      </trkpt>
      <trkpt lat="43.73952" lon="7.27496">
        <ele>318</ele>
        <time>2010-11-12T15:48:32Z</time>
      </trkpt>
      <trkpt lat="43.74033" lon="7.27486">
        <ele>319</ele>
        <time>2010-11-12T15:49:06Z</time>
      </trkpt>
      <trkpt lat="43.7412" lon="7.27446">
        <ele>325</ele>
        <time>2010-11-12T15:49:44Z</time>
      </trkpt>
      <trkpt lat="43.74167" lon="7.2743">
        <ele>330</ele>
        <time>2010-11-12T15:50:05Z</time>
      </trkpt>
      <trkpt lat="43.74248" lon="7.27372">
        <ele>332</ele>
        <time>2010-11-12T15:50:45Z</time>
      </trkpt>
      <trkpt lat="43.74252" lon="7.27369">
        <ele>333</ele>
        <time>2010-11-12T15:50:47Z</time>
      </trkpt>
      <trkpt lat="43.74316" lon="7.27278">
        <ele>344</ele>
        <time>2010-11-12T15:51:27Z</time>
      </trkpt>
      <trkpt lat="43.74334" lon="7.27262">
        <ele>347</ele>
        <time>2010-11-12T15:51:35Z</time>
      </trkpt>
      <trkpt lat="43.74373" lon="7.27148">
        <ele>357</ele>
        <time>2010-11-12T15:52:17Z</time>
      </trkpt>
      <trkpt lat="43.74386" lon="7.27085">
        <ele>360</ele>
        <time>2010-11-12T15:52:38Z</time>
      </trkpt>
      <trkpt lat="43.74407" lon="7.26961">
        <ele>371</ele>
        <time>2010-11-12T15:53:20Z</time>
      </trkpt>
      <trkpt lat="43.74429" lon="7.26837">
        <ele>375</ele>
        <time>2010-11-12T15:53:52Z</time>
      </trkpt>
      <trkpt lat="43.74432" lon="7.26822">
        <ele>376</ele>
        <time>2010-11-12T15:53:55Z</time>
      </trkpt>
      <trkpt lat="43.74417" lon="7.26698">
        <ele>374</ele>
        <time>2010-11-12T15:54:16Z</time>
      </trkpt>
      <trkpt lat="43.74388" lon="7.26578">
        <ele>376</ele>
        <time>2010-11-12T15:54:34Z</time>
      </trkpt>
      <trkpt lat="43.74369" lon="7.26456">
        <ele>378</ele>
        <time>2010-11-12T15:54:52Z</time>
      </trkpt>
      <trkpt lat="43.74415" lon="7.26345">
        <ele>377</ele>
        <time>2010-11-12T15:55:16Z</time>
      </trkpt>
      <trkpt lat="43.74507" lon="7.26328">
        <ele>373</ele>
        <time>2010-11-12T15:55:29Z</time>
      </trkpt>
      <trkpt lat="43.74592" lon="7.26381">
        <ele>370</ele>
        <time>2010-11-12T15:55:42Z</time>
      </trkpt>
      <trkpt lat="43.74596" lon="7.26381">
        <ele>370</ele>
        <time>2010-11-12T15:55:43Z</time>
      </trkpt>
      <trkpt lat="43.74626" lon="7.26376">
        <ele>371</ele>
        <time>2010-11-12T15:55:48Z</time>
      </trkpt>
      <trkpt lat="43.74717" lon="7.26383">
        <ele>368</ele>
        <time>2010-11-12T15:56:07Z</time>
      </trkpt>
      <trkpt lat="43.74809" lon="7.264">
        <ele>367</ele>
        <time>2010-11-12T15:56:28Z</time>
      </trkpt>
      <trkpt lat="43.74898" lon="7.2643">
        <ele>372</ele>
        <time>2010-11-12T15:56:53Z</time>
      </trkpt>
      <trkpt lat="43.74903" lon="7.26434">
        <ele>372</ele>
        <time>2010-11-12T15:56:54Z</time>
      </trkpt>
      <trkpt lat="43.74926" lon="7.26483">
        <ele>371</ele>
        <time>2010-11-12T15:57:02Z</time>
      </trkpt>
      <trkpt lat="43.75009" lon="7.26544">
        <ele>372</ele>
        <time>2010-11-12T15:57:20Z</time>
      </trkpt>
      <trkpt lat="43.75052" lon="7.26537">
        <ele>370</ele>
        <time>2010-11-12T15:57:24Z</time>
      </trkpt>
      <trkpt lat="43.75123" lon="7.2656">
        <ele>367</ele>
        <time>2010-11-12T15:57:34Z</time>
      </trkpt>
      <trkpt lat="43.75191" lon="7.26649">
        <ele>369</ele>
        <time>2010-11-12T15:57:49Z</time>
      </trkpt>
      <trkpt lat="43.75192" lon="7.26657">
        <ele>368</ele>
        <time>2010-11-12T15:57:50Z</time>
      </trkpt>
      <trkpt lat="43.75279" lon="7.26619">
        <ele>357</ele>
        <time>2010-11-12T15:58:33Z</time>
      </trkpt>
      <trkpt lat="43.75326" lon="7.26513">
        <ele>363</ele>
        <time>2010-11-12T15:59:06Z</time>
      </trkpt>
      <trkpt lat="43.75357" lon="7.26479">
        <ele>362</ele>
        <time>2010-11-12T15:59:24Z</time>
      </trkpt>
      <trkpt lat="43.75441" lon="7.26434">
        <ele>367</ele>
        <time>2010-11-12T16:00:14Z</time>
      </trkpt>
      <trkpt lat="43.75442" lon="7.26434">
        <ele>367</ele>
        <time>2010-11-12T16:00:15Z</time>
      </trkpt>
      <trkpt lat="43.7551" lon="7.26349">
        <ele>375</ele>
        <time>2010-11-12T16:01:02Z</time>
      </trkpt>
      <trkpt lat="43.75538" lon="7.26293">
        <ele>380</ele>
        <time>2010-11-12T16:01:22Z</time>
      </trkpt>
      <trkpt lat="43.7561" lon="7.26217">
        <ele>380</ele>
        <time>2010-11-12T16:01:59Z</time>
      </trkpt>
      <trkpt lat="43.75692" lon="7.26164">
        <ele>383</ele>
        <time>2010-11-12T16:02:29Z</time>
      </trkpt>
      <trkpt lat="43.75694" lon="7.26163">
        <ele>383</ele>
        <time>2010-11-12T16:02:30Z</time>
      </trkpt>
      <trkpt lat="43.7578" lon="7.26121">
        <ele>387</ele>
        <time>2010-11-12T16:03:05Z</time>
      </trkpt>
      <trkpt lat="43.75783" lon="7.26118">
        <ele>388</ele>
        <time>2010-11-12T16:03:07Z</time>
      </trkpt>
      <trkpt lat="43.75868" lon="7.26072">
        <ele>396</ele>
        <time>2010-11-12T16:03:51Z</time>
      </trkpt>
      <trkpt lat="43.75955" lon="7.26036">
        <ele>402</ele>
        <time>2010-11-12T16:04:35Z</time>
      </trkpt>
      <trkpt lat="43.76044" lon="7.2601">
        <ele>409</ele>
        <time>2010-11-12T16:05:22Z</time>
      </trkpt>
      <trkpt lat="43.76134" lon="7.26027">
        <ele>427</ele>
        <time>2010-11-12T16:06:31Z</time>
      </trkpt>
      <trkpt lat="43.7618" lon="7.26034">
        <ele>432</ele>
        <time>2010-11-12T16:06:59Z</time>
      </trkpt>
      <trkpt lat="43.76244" lon="7.26123">
        <ele>445</ele>
        <time>2010-11-12T16:08:08Z</time>
      </trkpt>
      <trkpt lat="43.76296" lon="7.26178">
        <ele>451</ele>
        <time>2010-11-12T16:08:45Z</time>
      </trkpt>
      <trkpt lat="43.7636" lon="7.26266">
        <ele>461</ele>
        <time>2010-11-12T16:09:49Z</time>
      </trkpt>
      <trkpt lat="43.76366" lon="7.26263">
        <ele>461</ele>
        <time>2010-11-12T16:09:54Z</time>
      </trkpt>
      <trkpt lat="43.76441" lon="7.26335">
        <ele>497</ele>
        <time>2010-11-12T16:12:50Z</time>
      </trkpt>
      <trkpt lat="43.76446" lon="7.26332">
        <ele>497</ele>
        <time>2010-11-12T16:12:54Z</time>
      </trkpt>
      <trkpt lat="43.76523" lon="7.26266">
        <ele>503</ele>
        <time>2010-11-12T16:13:43Z</time>
      </trkpt>
      <trkpt lat="43.76532" lon="7.26255">
        <ele>504</ele>
        <time>2010-11-12T16:13:50Z</time>
      </trkpt>
      <trkpt lat="43.76485" lon="7.26147">
        <ele>511</ele>
        <time>2010-11-12T16:14:48Z</time>
      </trkpt>
      <trkpt lat="43.76573" lon="7.26173">
        <ele>527</ele>
        <time>2010-11-12T16:16:57Z</time>
      </trkpt>
      <trkpt lat="43.76622" lon="7.26214">
        <ele>530</ele>
        <time>2010-11-12T16:17:34Z</time>
      </trkpt>
      <trkpt lat="43.76583" lon="7.26328">
        <ele>534</ele>
        <time>2010-11-12T16:18:32Z</time>
      </trkpt>
      <trkpt lat="43.76582" lon="7.2633">
        <ele>534</ele>
        <time>2010-11-12T16:18:33Z</time>
      </trkpt>
      <trkpt lat="43.76523" lon="7.26426">
        <ele>540</ele>
        <time>2010-11-12T16:19:41Z</time>
      </trkpt>
      <trkpt lat="43.7652" lon="7.26434">
        <ele>541</ele>
        <time>2010-11-12T16:19:47Z</time>
      </trkpt>
      <trkpt lat="43.76602" lon="7.2638">
        <ele>553</ele>
        <time>2010-11-12T16:20:45Z</time>
      </trkpt>
      <trkpt lat="43.76644" lon="7.26348">
        <ele>558</ele>
        <time>2010-11-12T16:21:15Z</time>
      </trkpt>
      <trkpt lat="43.76717" lon="7.26274">
        <ele>567</ele>
        <time>2010-11-12T16:22:11Z</time>
      </trkpt>
      <trkpt lat="43.7673" lon="7.2626">
        <ele>567</ele>
        <time>2010-11-12T16:22:21Z</time>
      </trkpt>
      <trkpt lat="43.7672" lon="7.26132">
        <ele>578</ele>
        <time>2010-11-12T16:23:30Z</time>
      </trkpt>
      <trkpt lat="43.76716" lon="7.26126">
        <ele>578</ele>
        <time>2010-11-12T16:23:33Z</time>
      </trkpt>
      <trkpt lat="43.76804" lon="7.26159">
        <ele>602</ele>
        <time>2010-11-12T16:26:23Z</time>
      </trkpt>
      <trkpt lat="43.76837" lon="7.26189">
        <ele>604</ele>
        <time>2010-11-12T16:26:48Z</time>
      </trkpt>
      <trkpt lat="43.76802" lon="7.26304">
        <ele>614</ele>
        <time>2010-11-12T16:27:47Z</time>
      </trkpt>
      <trkpt lat="43.768" lon="7.26309">
        <ele>614</ele>
        <time>2010-11-12T16:27:49Z</time>
      </trkpt>
      <trkpt lat="43.76753" lon="7.26415">
        <ele>621</ele>
        <time>2010-11-12T16:28:43Z</time>
      </trkpt>
      <trkpt lat="43.76832" lon="7.26355">
        <ele>636</ele>
        <time>2010-11-12T16:30:42Z</time>
      </trkpt>
      <trkpt lat="43.7684" lon="7.26344">
        <ele>639</ele>
        <time>2010-11-12T16:30:54Z</time>
      </trkpt>
      <trkpt lat="43.76909" lon="7.26263">
        <ele>646</ele>
        <time>2010-11-12T16:32:02Z</time>
      </trkpt>
      <trkpt lat="43.7691" lon="7.26262">
        <ele>646</ele>
        <time>2010-11-12T16:32:03Z</time>
      </trkpt>
      <trkpt lat="43.76944" lon="7.26145">
        <ele>656</ele>
        <time>2010-11-12T16:33:11Z</time>
      </trkpt>
      <trkpt lat="43.76962" lon="7.26166">
        <ele>661</ele>
        <time>2010-11-12T16:33:32Z</time>
      </trkpt>
      <trkpt lat="43.76931" lon="7.26284">
        <ele>671</ele>
        <time>2010-11-12T16:34:21Z</time>
      </trkpt>
      <trkpt lat="43.76923" lon="7.26311">
        <ele>670</ele>
        <time>2010-11-12T16:34:34Z</time>
      </trkpt>
      <trkpt lat="43.7688" lon="7.26423">
        <ele>677</ele>
        <time>2010-11-12T16:35:29Z</time>
      </trkpt>
      <trkpt lat="43.76847" lon="7.26541">
        <ele>685</ele>
        <time>2010-11-12T16:36:27Z</time>
      </trkpt>
      <trkpt lat="43.76917" lon="7.26461">
        <ele>701</ele>
        <time>2010-11-12T16:38:12Z</time>
      </trkpt>
      <trkpt lat="43.7698" lon="7.2637">
        <ele>721</ele>
        <time>2010-11-12T16:39:29Z</time>
      </trkpt>
      <trkpt lat="43.77006" lon="7.26337">
        <ele>721</ele>
        <time>2010-11-12T16:39:56Z</time>
      </trkpt>
      <trkpt lat="43.77077" lon="7.2626">
        <ele>724</ele>
        <time>2010-11-12T16:41:25Z</time>
      </trkpt>
      <trkpt lat="43.77145" lon="7.26177">
        <ele>735</ele>
        <time>2010-11-12T16:42:58Z</time>
      </trkpt>
      <trkpt lat="43.77166" lon="7.2615">
        <ele>738</ele>
        <time>2010-11-12T16:43:25Z</time>
      </trkpt>
      <trkpt lat="43.77221" lon="7.2605">
        <ele>747</ele>
        <time>2010-11-12T16:45:23Z</time>
      </trkpt>
      <trkpt lat="43.7723" lon="7.26032">
        <ele>747</ele>
        <time>2010-11-12T16:45:33Z</time>
      </trkpt>
      <trkpt lat="43.77186" lon="7.25922">
        <ele>758</ele>
        <time>2010-11-12T16:46:37Z</time>
      </trkpt>
      <trkpt lat="43.77114" lon="7.25908">
        <ele>764</ele>
        <time>2010-11-12T16:47:11Z</time>
      </trkpt>
      <trkpt lat="43.77025" lon="7.25926">
        <ele>771</ele>
        <time>2010-11-12T16:47:50Z</time>
      </trkpt>
      <trkpt lat="43.76956" lon="7.25846">
        <ele>775</ele>
        <time>2010-11-12T16:48:34Z</time>
      </trkpt>
      <trkpt lat="43.76926" lon="7.25796">
        <ele>778</ele>
        <time>2010-11-12T16:49:00Z</time>
      </trkpt>
      <trkpt lat="43.76873" lon="7.25694">
        <ele>789</ele>
        <time>2010-11-12T16:49:52Z</time>
      </trkpt>
      <trkpt lat="43.76858" lon="7.25657">
        <ele>791</ele>
        <time>2010-11-12T16:50:13Z</time>
      </trkpt>
      <trkpt lat="43.7683" lon="7.25537">
        <ele>797</ele>
        <time>2010-11-12T16:50:48Z</time>
      </trkpt>
      <trkpt lat="43.76854" lon="7.25411">
        <ele>798</ele>
        <time>2010-11-12T16:51:41Z</time>
      </trkpt>
      <trkpt lat="43.76889" lon="7.25296">
        <ele>796</ele>
        <time>2010-11-12T16:52:01Z</time>
      </trkpt>
      <trkpt lat="43.76915" lon="7.25173">
        <ele>794</ele>
        <time>2010-11-12T16:52:19Z</time>
      </trkpt>
      <trkpt lat="43.76953" lon="7.25086">
        <ele>783</ele>
        <time>2010-11-12T16:52:37Z</time>
      </trkpt>
      <trkpt lat="43.7689" lon="7.2518">
        <ele>756</ele>
        <time>2010-11-12T16:52:55Z</time>
      </trkpt>
      <trkpt lat="43.76888" lon="7.25055">
        <ele>746</ele>
        <time>2010-11-12T16:53:20Z</time>
      </trkpt>
      <trkpt lat="43.76799" lon="7.2503">
        <ele>731</ele>
        <time>2010-11-12T16:53:46Z</time>
      </trkpt>
      <trkpt lat="43.76784" lon="7.25029">
        <ele>729</ele>
        <time>2010-11-12T16:53:52Z</time>
      </trkpt>
      <trkpt lat="43.76694" lon="7.25044">
        <ele>716</ele>
        <time>2010-11-12T16:54:40Z</time>
      </trkpt>
      <trkpt lat="43.7661" lon="7.25093">
        <ele>703</ele>
        <time>2010-11-12T16:55:13Z</time>
      </trkpt>
      <trkpt lat="43.76608" lon="7.25093">
        <ele>703</ele>
        <time>2010-11-12T16:55:14Z</time>
      </trkpt>
      <trkpt lat="43.7652" lon="7.2512">
        <ele>697</ele>
        <time>2010-11-12T16:55:46Z</time>
      </trkpt>
      <trkpt lat="43.76429" lon="7.25123">
        <ele>689</ele>
        <time>2010-11-12T16:56:31Z</time>
      </trkpt>
      <trkpt lat="43.76354" lon="7.25192">
        <ele>678</ele>
        <time>2010-11-12T16:57:08Z</time>
      </trkpt>
      <trkpt lat="43.76265" lon="7.25204">
        <ele>667</ele>
        <time>2010-11-12T16:57:44Z</time>
      </trkpt>
      <trkpt lat="43.76176" lon="7.25231">
        <ele>656</ele>
        <time>2010-11-12T16:58:26Z</time>
      </trkpt>
      <trkpt lat="43.76131" lon="7.25255">
        <ele>650</ele>
        <time>2010-11-12T16:58:54Z</time>
      </trkpt>
      <trkpt lat="43.76047" lon="7.25302">
        <ele>638</ele>
        <time>2010-11-12T16:59:33Z</time>
      </trkpt>
      <trkpt lat="43.75962" lon="7.25349">
        <ele>629</ele>
        <time>2010-11-12T17:00:13Z</time>
      </trkpt>
      <trkpt lat="43.75901" lon="7.25392">
        <ele>621</ele>
        <time>2010-11-12T17:00:48Z</time>
      </trkpt>
      <trkpt lat="43.75812" lon="7.25412">
        <ele>610</ele>
        <time>2010-11-12T17:01:33Z</time>
      </trkpt>
      <trkpt lat="43.75748" lon="7.25323">
        <ele>564</ele>
        <time>2010-11-12T17:03:48Z</time>
      </trkpt>
      <trkpt lat="43.7576" lon="7.25301">
        <ele>561</ele>
        <time>2010-11-12T17:03:55Z</time>
      </trkpt>
      <trkpt lat="43.75684" lon="7.25233">
        <ele>517</ele>
        <time>2010-11-12T17:06:00Z</time>
      </trkpt>
      <trkpt lat="43.75616" lon="7.2515">
        <ele>494</ele>
        <time>2010-11-12T17:07:28Z</time>
      </trkpt>
      <trkpt lat="43.75531" lon="7.25206">
        <ele>489</ele>
        <time>2010-11-12T17:08:36Z</time>
      </trkpt>
      <trkpt lat="43.75442" lon="7.25225">
        <ele>496</ele>
        <time>2010-11-12T17:09:29Z</time>
      </trkpt>
      <trkpt lat="43.75365" lon="7.25294">
        <ele>497</ele>
        <time>2010-11-12T17:09:55Z</time>
      </trkpt>
      <trkpt lat="43.75273" lon="7.25298">
        <ele>482</ele>
        <time>2010-11-12T17:10:26Z</time>
      </trkpt>
      <trkpt lat="43.75194" lon="7.25363">
        <ele>478</ele>
        <time>2010-11-12T17:11:13Z</time>
      </trkpt>
      <trkpt lat="43.75193" lon="7.25364">
        <ele>479</ele>
        <time>2010-11-12T17:11:14Z</time>
      </trkpt>
      <trkpt lat="43.75129" lon="7.25468">
        <ele>483</ele>
        <time>2010-11-12T17:11:59Z</time>
      </trkpt>
      <trkpt lat="43.75125" lon="7.25478">
        <ele>482</ele>
        <time>2010-11-12T17:12:00Z</time>
      </trkpt>
      <trkpt lat="43.75043" lon="7.25535">
        <ele>471</ele>
        <time>2010-11-12T17:12:37Z</time>
      </trkpt>
      <trkpt lat="43.74953" lon="7.25551">
        <ele>467</ele>
        <time>2010-11-12T17:13:14Z</time>
      </trkpt>
      <trkpt lat="43.7486" lon="7.25563">
        <ele>473</ele>
        <time>2010-11-12T17:13:59Z</time>
      </trkpt>
      <trkpt lat="43.7477" lon="7.25577">
        <ele>468</ele>
        <time>2010-11-12T17:14:32Z</time>
      </trkpt>
      <trkpt lat="43.74754" lon="7.25577">
        <ele>467</ele>
        <time>2010-11-12T17:14:39Z</time>
      </trkpt>
      <trkpt lat="43.74667" lon="7.2561">
        <ele>467</ele>
        <time>2010-11-12T17:15:33Z</time>
      </trkpt>
      <trkpt lat="43.74663" lon="7.25611">
        <ele>467</ele>
        <time>2010-11-12T17:15:35Z</time>
      </trkpt>
      <trkpt lat="43.74573" lon="7.25623">
        <ele>465</ele>
        <time>2010-11-12T17:16:04Z</time>
      </trkpt>
      <trkpt lat="43.74529" lon="7.25615">
        <ele>455</ele>
        <time>2010-11-12T17:16:21Z</time>
      </trkpt>
      <trkpt lat="43.7444" lon="7.25643">
        <ele>449</ele>
        <time>2010-11-12T17:17:01Z</time>
      </trkpt>
      <trkpt lat="43.74437" lon="7.25643">
        <ele>448</ele>
        <time>2010-11-12T17:17:01Z</time>
      </trkpt>
      <trkpt lat="43.74345" lon="7.25642">
        <ele>441</ele>
        <time>2010-11-12T17:17:28Z</time>
      </trkpt>
      <trkpt lat="43.74253" lon="7.25649">
        <ele>438</ele>
        <time>2010-11-12T17:18:21Z</time>
      </trkpt>
      <trkpt lat="43.74251" lon="7.25651">
        <ele>438</ele>
        <time>2010-11-12T17:18:23Z</time>
      </trkpt>
      <trkpt lat="43.74203" lon="7.25759">
        <ele>433</ele>
        <time>2010-11-12T17:18:47Z</time>
      </trkpt>
      <trkpt lat="43.74227" lon="7.25841">
        <ele>434</ele>
        <time>2010-11-12T17:18:58Z</time>
      </trkpt>
      <trkpt lat="43.74281" lon="7.25943">
        <ele>422</ele>
        <time>2010-11-12T17:19:23Z</time>
      </trkpt>
      <trkpt lat="43.74314" lon="7.26063">
        <ele>414</ele>
        <time>2010-11-12T17:19:38Z</time>
      </trkpt>
      <trkpt lat="43.74345" lon="7.26181">
        <ele>406</ele>
        <time>2010-11-12T17:19:50Z</time>
      </trkpt>
      <trkpt lat="43.74357" lon="7.26306">
        <ele>401</ele>
        <time>2010-11-12T17:20:05Z</time>
      </trkpt>
      <trkpt lat="43.74372" lon="7.26432">
        <ele>385</ele>
        <time>2010-11-12T17:20:37Z</time>
      </trkpt>
      <trkpt lat="43.7439" lon="7.26555">
        <ele>384</ele>
        <time>2010-11-12T17:20:59Z</time>
      </trkpt>
      <trkpt lat="43.74396" lon="7.26594">
        <ele>384</ele>
        <time>2010-11-12T17:21:07Z</time>
      </trkpt>
      <trkpt lat="43.74422" lon="7.26716">
        <ele>387</ele>
        <time>2010-11-12T17:21:28Z</time>
      </trkpt>
      <trkpt lat="43.74419" lon="7.2685">
        <ele>387</ele>
        <time>2010-11-12T17:21:45Z</time>
      </trkpt>
      <trkpt lat="43.74417" lon="7.26868">
        <ele>385</ele>
        <time>2010-11-12T17:21:47Z</time>
      </trkpt>
      <trkpt lat="43.74394" lon="7.27016">
        <ele>382</ele>
        <time>2010-11-12T17:22:02Z</time>
      </trkpt>
      <trkpt lat="43.74375" lon="7.27139">
        <ele>379</ele>
        <time>2010-11-12T17:22:11Z</time>
      </trkpt>
      <trkpt lat="43.74333" lon="7.27256">
        <ele>376</ele>
        <time>2010-11-12T17:22:20Z</time>
      </trkpt>
      <trkpt lat="43.74266" lon="7.27349">
        <ele>373</ele>
        <time>2010-11-12T17:22:29Z</time>
      </trkpt>
      <trkpt lat="43.74198" lon="7.27432">
        <ele>373</ele>
        <time>2010-11-12T17:22:40Z</time>
      </trkpt>
      <trkpt lat="43.74193" lon="7.27435">
        <ele>373</ele>
        <time>2010-11-12T17:22:40Z</time>
      </trkpt>
      <trkpt lat="43.741" lon="7.27473">
        <ele>372</ele>
        <time>2010-11-12T17:22:50Z</time>
      </trkpt>
      <trkpt lat="43.74011" lon="7.27508">
        <ele>370</ele>
        <time>2010-11-12T17:23:00Z</time>
      </trkpt>
      <trkpt lat="43.73973" lon="7.27495">
        <ele>366</ele>
        <time>2010-11-12T17:23:05Z</time>
      </trkpt>
      <trkpt lat="43.73893" lon="7.27428">
        <ele>355</ele>
        <time>2010-11-12T17:23:14Z</time>
      </trkpt>
      <trkpt lat="43.73872" lon="7.27319">
        <ele>340</ele>
        <time>2010-11-12T17:23:25Z</time>
      </trkpt>
      <trkpt lat="43.73831" lon="7.27437">
        <ele>333</ele>
        <time>2010-11-12T17:23:47Z</time>
      </trkpt>
      <trkpt lat="43.73873" lon="7.27525">
        <ele>320</ele>
        <time>2010-11-12T17:23:57Z</time>
      </trkpt>
      <trkpt lat="43.73871" lon="7.27654">
        <ele>313</ele>
        <time>2010-11-12T17:24:10Z</time>
      </trkpt>
      <trkpt lat="43.739" lon="7.27705">
        <ele>302</ele>
        <time>2010-11-12T17:24:21Z</time>
      </trkpt>
      <trkpt lat="43.73861" lon="7.2782">
        <ele>296</ele>
        <time>2010-11-12T17:24:44Z</time>
      </trkpt>
      <trkpt lat="43.73775" lon="7.27879">
        <ele>299</ele>
        <time>2010-11-12T17:24:54Z</time>
      </trkpt>
      <trkpt lat="43.73693" lon="7.27941">
        <ele>297</ele>
        <time>2010-11-12T17:25:02Z</time>
      </trkpt>
      <trkpt lat="43.73602" lon="7.27923">
        <ele>282</ele>
        <time>2010-11-12T17:25:12Z</time>
      </trkpt>
      <trkpt lat="43.73556" lon="7.27891">
        <ele>277</ele>
        <time>2010-11-12T17:25:16Z</time>
      </trkpt>
      <trkpt lat="43.73472" lon="7.27836">
        <ele>273</ele>
        <time>2010-11-12T17:25:24Z</time>
      </trkpt>
      <trkpt lat="43.73386" lon="7.27779">
        <ele>268</ele>
        <time>2010-11-12T17:25:34Z</time>
      </trkpt>
      <trkpt lat="43.73336" lon="7.27675">
        <ele>263</ele>
        <time>2010-11-12T17:25:43Z</time>
      </trkpt>
      <trkpt lat="43.7332" lon="7.27658">
        <ele>259</ele>
        <time>2010-11-12T17:25:47Z</time>
      </trkpt>
      <trkpt lat="43.73244" lon="7.27589">
        <ele>238</ele>
        <time>2010-11-12T17:26:16Z</time>
      </trkpt>
      <trkpt lat="43.73149" lon="7.27587">
        <ele>241</ele>
        <time>2010-11-12T17:26:41Z</time>
      </trkpt>
      <trkpt lat="43.73131" lon="7.2759">
        <ele>241</ele>
        <time>2010-11-12T17:26:43Z</time>
      </trkpt>
      <trkpt lat="43.73043" lon="7.27623">
        <ele>241</ele>
        <time>2010-11-12T17:26:56Z</time>
      </trkpt>
      <trkpt lat="43.72965" lon="7.27693">
        <ele>238</ele>
        <time>2010-11-12T17:27:16Z</time>
      </trkpt>
    </trkseg>
  </trk>
</gpx>